sensor_id;sensor_type;location;lat;lon;timestamp;pressure;altitude;pressure_sealevel;temperature;humidity
20037;BME280;10179;42.640;23.312;2022-12-29T00:01:50;94546.34;;;9.27;54.19
20037;BME280;10179;42.640;23.312;2022-12-29T00:04:17;94570.00;;;9.47;54.32
20037;BME280;10179;42.640;23.312;2022-12-29T00:06:43;94578.50;;;9.49;54.36
20037;BME280;10179;42.640;23.312;2022-12-29T00:09:11;94576.47;;;9.51;54.18
20037;BME280;10179;42.640;23.312;2022-12-29T00:11:37;94516.50;;;8.93;54.12
20037;BME280;10179;42.640;23.312;2022-12-29T00:14:02;94451.50;;;8.69;54.34
20037;BME280;10179;42.640;23.312;2022-12-29T00:16:47;94534.81;;;9.21;54.19
20037;BME280;10179;42.640;23.312;2022-12-29T00:19:12;94497.19;;;9.01;54.42
20037;BME280;10179;42.640;23.312;2022-12-29T00:21:57;94558.94;;;9.45;54.49
20037;BME280;10179;42.640;23.312;2022-12-29T00:24:41;94495.44;;;9.08;54.27
20037;BME280;10179;42.640;23.312;2022-12-29T00:27:26;94548.97;;;9.33;54.32
20037;BME280;10179;42.640;23.312;2022-12-29T00:30:12;94456.78;;;8.75;54.34
20037;BME280;10179;42.640;23.312;2022-12-29T00:32:56;94587.00;;;9.57;54.16
20037;BME280;10179;42.640;23.312;2022-12-29T00:35:46;94458.81;;;8.80;54.09
20037;BME280;10179;42.640;23.312;2022-12-29T00:38:16;94459.44;;;8.82;54.19
20037;BME280;10179;42.640;23.312;2022-12-29T00:40:59;94531.97;;;9.16;54.03
20037;BME280;10179;42.640;23.312;2022-12-29T00:43:43;94588.63;;;9.59;54.17
20037;BME280;10179;42.640;23.312;2022-12-29T00:46:27;94600.75;;;9.60;54.10
20037;BME280;10179;42.640;23.312;2022-12-29T00:48:53;94597.91;;;9.61;54.07
20037;BME280;10179;42.640;23.312;2022-12-29T00:51:37;94615.66;;;9.59;53.95
20037;BME280;10179;42.640;23.312;2022-12-29T00:54:02;94508.31;;;9.03;53.86
20037;BME280;10179;42.640;23.312;2022-12-29T00:56:28;94487.47;;;8.88;54.02
20037;BME280;10179;42.640;23.312;2022-12-29T00:58:53;94603.94;;;9.55;54.03
20037;BME280;10179;42.640;23.312;2022-12-29T01:01:18;94591.81;;;9.54;53.93
20037;BME280;10179;42.640;23.312;2022-12-29T01:03:44;94592.84;;;9.53;54.10
20037;BME280;10179;42.640;23.312;2022-12-29T01:06:11;94576.44;;;9.38;53.94
20037;BME280;10179;42.640;23.312;2022-12-29T01:08:37;94590.19;;;9.46;54.13
20037;BME280;10179;42.640;23.312;2022-12-29T01:11:05;94601.47;;;9.47;53.98
20037;BME280;10179;42.640;23.312;2022-12-29T01:13:31;94604.31;;;9.45;54.00
20037;BME280;10179;42.640;23.312;2022-12-29T01:15:57;94596.63;;;9.44;54.08
20037;BME280;10179;42.640;23.312;2022-12-29T01:18:24;94538.75;;;9.04;54.28
20037;BME280;10179;42.640;23.312;2022-12-29T01:20:51;94587.53;;;9.40;54.23
20037;BME280;10179;42.640;23.312;2022-12-29T01:23:22;94592.59;;;9.41;53.92
20037;BME280;10179;42.640;23.312;2022-12-29T01:25:48;94571.53;;;9.28;53.92
20037;BME280;10179;42.640;23.312;2022-12-29T01:28:13;94582.88;;;9.35;54.02
20037;BME280;10179;42.640;23.312;2022-12-29T01:30:39;94565.22;;;8.81;54.30
20037;BME280;10179;42.640;23.312;2022-12-29T01:33:04;94579.63;;;9.33;54.30
20037;BME280;10179;42.640;23.312;2022-12-29T01:35:30;94535.91;;;9.05;54.47
20037;BME280;10179;42.640;23.312;2022-12-29T01:37:55;94580.41;;;9.33;54.25
20037;BME280;10179;42.640;23.312;2022-12-29T01:40:20;94473.25;;;8.69;54.31
20037;BME280;10179;42.640;23.312;2022-12-29T01:42:46;94579.19;;;9.29;54.25
20037;BME280;10179;42.640;23.312;2022-12-29T01:45:13;94591.31;;;9.30;54.50
20037;BME280;10179;42.640;23.312;2022-12-29T01:47:45;94545.66;;;9.18;54.47
20037;BME280;10179;42.640;23.312;2022-12-29T01:50:15;94558.22;;;9.29;54.45
20037;BME280;10179;42.640;23.312;2022-12-29T01:53:10;94565.09;;;9.30;54.69
20037;BME280;10179;42.640;23.312;2022-12-29T01:55:39;94478.16;;;8.79;54.80
20037;BME280;10179;42.640;23.312;2022-12-29T01:58:06;94561.66;;;9.30;54.90
20037;BME280;10179;42.640;23.312;2022-12-29T02:00:32;94565.91;;;9.31;54.59
20037;BME280;10179;42.640;23.312;2022-12-29T02:02:57;94554.22;;;9.33;54.87
20037;BME280;10179;42.640;23.312;2022-12-29T02:07:58;94550.59;;;9.35;54.72
20037;BME280;10179;42.640;23.312;2022-12-29T02:10:26;94545.38;;;9.35;54.82
20037;BME280;10179;42.640;23.312;2022-12-29T02:12:53;94513.00;;;9.14;54.88
20037;BME280;10179;42.640;23.312;2022-12-29T02:15:27;94416.09;;;8.45;55.30
20037;BME280;10179;42.640;23.312;2022-12-29T02:21:41;94547.22;;;9.41;54.62
20037;BME280;10179;42.640;23.312;2022-12-29T02:24:32;94542.16;;;9.39;54.53
20037;BME280;10179;42.640;23.312;2022-12-29T02:35:10;94546.13;;;9.28;55.14
20037;BME280;10179;42.640;23.312;2022-12-29T02:40:30;94545.75;;;9.31;55.10
20037;BME280;10179;42.640;23.312;2022-12-29T02:43:08;94545.75;;;9.31;55.24
20037;BME280;10179;42.640;23.312;2022-12-29T02:45:46;94554.00;;;9.28;55.25
20037;BME280;10179;42.640;23.312;2022-12-29T02:48:30;94499.06;;;8.72;55.29
20037;BME280;10179;42.640;23.312;2022-12-29T02:51:10;94555.25;;;9.39;55.04
20037;BME280;10179;42.640;23.312;2022-12-29T02:53:38;94545.38;;;9.35;55.26
20037;BME280;10179;42.640;23.312;2022-12-29T02:56:22;94545.38;;;9.35;55.22
20037;BME280;10179;42.640;23.312;2022-12-29T02:58:48;94550.41;;;9.36;55.28
20037;BME280;10179;42.640;23.312;2022-12-29T03:07:14;94478.72;;;9.09;55.21
20037;BME280;10179;42.640;23.312;2022-12-29T03:17:46;94524.34;;;9.28;55.14
20037;BME280;10179;42.640;23.312;2022-12-29T03:20:20;94483.94;;;9.02;55.24
20037;BME280;10179;42.640;23.312;2022-12-29T03:22:51;94528.78;;;9.27;55.12
20037;BME280;10179;42.640;23.312;2022-12-29T03:25:30;94516.28;;;9.29;55.32
20037;BME280;10179;42.640;23.312;2022-12-29T03:28:02;94523.94;;;9.24;55.25
20037;BME280;10179;42.640;23.312;2022-12-29T03:30:29;94517.25;;;9.22;54.94
20037;BME280;10179;42.640;23.312;2022-12-29T03:32:59;94490.75;;;8.97;55.19
20037;BME280;10179;42.640;23.312;2022-12-29T03:35:27;94528.34;;;9.17;55.02
20037;BME280;10179;42.640;23.312;2022-12-29T03:38:13;94529.19;;;9.24;55.08
20037;BME280;10179;42.640;23.312;2022-12-29T03:40:44;94521.88;;;9.13;55.13
20037;BME280;10179;42.640;23.312;2022-12-29T03:43:11;94408.47;;;8.43;55.15
20037;BME280;10179;42.640;23.312;2022-12-29T03:45:37;94535.56;;;9.15;55.15
20037;BME280;10179;42.640;23.312;2022-12-29T03:48:03;94526.91;;;9.15;54.99
20037;BME280;10179;42.640;23.312;2022-12-29T03:50:29;94529.09;;;9.11;54.98
20037;BME280;10179;42.640;23.312;2022-12-29T03:52:54;94543.00;;;9.12;55.07
20037;BME280;10179;42.640;23.312;2022-12-29T03:55:19;94536.38;;;9.09;54.91
20037;BME280;10179;42.640;23.312;2022-12-29T03:57:45;94545.22;;;9.08;54.73
20037;BME280;10179;42.640;23.312;2022-12-29T04:00:11;94550.84;;;9.05;54.89
20037;BME280;10179;42.640;23.312;2022-12-29T04:02:36;94554.47;;;9.04;54.89
20037;BME280;10179;42.640;23.312;2022-12-29T04:05:02;94551.63;;;8.99;54.65
20037;BME280;10179;42.640;23.312;2022-12-29T04:07:27;94557.25;;;8.96;54.49
20037;BME280;10179;42.640;23.312;2022-12-29T04:09:53;94540.22;;;8.78;54.35
20037;BME280;10179;42.640;23.312;2022-12-29T04:12:18;94555.72;;;8.80;54.56
20037;BME280;10179;42.640;23.312;2022-12-29T04:14:44;94555.50;;;8.75;54.87
20037;BME280;10179;42.640;23.312;2022-12-29T04:17:09;94556.25;;;8.69;54.38
20037;BME280;10179;42.640;23.312;2022-12-29T04:19:35;94545.91;;;8.60;54.45
20037;BME280;10179;42.640;23.312;2022-12-29T04:22:00;94555.72;;;8.52;54.31
20037;BME280;10179;42.640;23.312;2022-12-29T04:24:25;94529.78;;;8.35;54.66
20037;BME280;10179;42.640;23.312;2022-12-29T04:26:51;94510.34;;;8.23;54.69
20037;BME280;10179;42.640;23.312;2022-12-29T04:29:16;94550.25;;;8.47;55.00
20037;BME280;10179;42.640;23.312;2022-12-29T04:31:42;94556.44;;;8.46;55.11
20037;BME280;10179;42.640;23.312;2022-12-29T04:34:07;94560.06;;;8.45;54.96
20037;BME280;10179;42.640;23.312;2022-12-29T04:36:33;94436.94;;;7.60;55.02
20037;BME280;10179;42.640;23.312;2022-12-29T04:38:58;94556.59;;;8.38;55.00
20037;BME280;10179;42.640;23.312;2022-12-29T04:41:24;94563.06;;;8.42;55.23
20037;BME280;10179;42.640;23.312;2022-12-29T04:43:49;94566.44;;;8.35;55.17
20037;BME280;10179;42.640;23.312;2022-12-29T04:46:15;94493.31;;;7.84;54.98
20037;BME280;10179;42.640;23.312;2022-12-29T04:48:40;94573.75;;;8.40;55.08
20037;BME280;10179;42.640;23.312;2022-12-29T04:51:06;94387.09;;;7.19;55.24
20037;BME280;10179;42.640;23.312;2022-12-29T04:53:31;94387.09;;;7.19;55.41
20037;BME280;10179;42.640;23.312;2022-12-29T04:55:56;94454.09;;;7.63;55.24
20037;BME280;10179;42.640;23.312;2022-12-29T04:58:22;94582.03;;;8.44;55.15
20037;BME280;10179;42.640;23.312;2022-12-29T05:00:47;94595.91;;;8.44;55.62
20037;BME280;10179;42.640;23.312;2022-12-29T05:03:13;94585.88;;;8.48;55.52
20037;BME280;10179;42.640;23.312;2022-12-29T05:05:38;94577.03;;;8.49;55.31
20037;BME280;10179;42.640;23.312;2022-12-29T05:08:04;94585.44;;;8.44;55.29
20037;BME280;10179;42.640;23.312;2022-12-29T05:10:29;94589.94;;;8.50;55.29
20037;BME280;10179;42.640;23.312;2022-12-29T05:12:55;94586.50;;;8.50;55.46
20037;BME280;10179;42.640;23.312;2022-12-29T05:15:21;94463.44;;;7.72;55.83
20037;BME280;10179;42.640;23.312;2022-12-29T05:18:14;94583.97;;;8.63;55.80
20037;BME280;10179;42.640;23.312;2022-12-29T05:20:40;94549.56;;;8.38;55.80
20037;BME280;10179;42.640;23.312;2022-12-29T05:23:05;94582.75;;;8.59;55.85
20037;BME280;10179;42.640;23.312;2022-12-29T05:25:31;94586.81;;;8.62;55.92
20037;BME280;10179;42.640;23.312;2022-12-29T05:27:56;94589.84;;;8.65;55.77
20037;BME280;10179;42.640;23.312;2022-12-29T05:30:21;94581.63;;;8.68;55.80
20037;BME280;10179;42.640;23.312;2022-12-29T05:32:47;94565.22;;;8.59;55.88
20037;BME280;10179;42.640;23.312;2022-12-29T05:35:12;94462.66;;;8.00;55.74
20037;BME280;10179;42.640;23.312;2022-12-29T05:37:38;94491.63;;;7.98;55.67
20037;BME280;10179;42.640;23.312;2022-12-29T05:40:05;94575.38;;;8.69;55.82
20037;BME280;10179;42.640;23.312;2022-12-29T05:42:30;94584.84;;;8.70;55.87
20037;BME280;10179;42.640;23.312;2022-12-29T05:44:56;94552.84;;;8.47;56.22
20037;BME280;10179;42.640;23.312;2022-12-29T05:47:21;94593.34;;;8.72;55.91
20037;BME280;10179;42.640;23.312;2022-12-29T05:49:46;94593.75;;;8.76;55.97
20037;BME280;10179;42.640;23.312;2022-12-29T05:52:41;94591.84;;;8.84;55.81
20037;BME280;10179;42.640;23.312;2022-12-29T05:55:07;94587.72;;;8.75;55.92
20037;BME280;10179;42.640;23.312;2022-12-29T05:57:33;94594.41;;;8.78;56.28
20037;BME280;10179;42.640;23.312;2022-12-29T05:59:58;94595.00;;;8.80;55.96
20037;BME280;10179;42.640;23.312;2022-12-29T06:02:23;94547.03;;;8.51;56.11
20037;BME280;10179;42.640;23.312;2022-12-29T06:04:49;94595.63;;;8.82;56.26
20037;BME280;10179;42.640;23.312;2022-12-29T06:07:14;94461.63;;;7.94;56.04
20037;BME280;10179;42.640;23.312;2022-12-29T06:09:40;94602.31;;;8.84;56.15
20037;BME280;10179;42.640;23.312;2022-12-29T06:12:05;94603.13;;;8.85;56.13
20037;BME280;10179;42.640;23.312;2022-12-29T06:14:31;94590.72;;;8.72;56.23
20037;BME280;10179;42.640;23.312;2022-12-29T06:16:56;94590.50;;;8.74;56.07
20037;BME280;10179;42.640;23.312;2022-12-29T06:19:22;94603.72;;;8.87;56.31
20037;BME280;10179;42.640;23.312;2022-12-29T06:21:47;94618.25;;;8.90;56.38
20037;BME280;10179;42.640;23.312;2022-12-29T06:24:12;94587.94;;;8.80;56.14
20037;BME280;10179;42.640;23.312;2022-12-29T06:26:38;94565.72;;;8.70;55.98
20037;BME280;10179;42.640;23.312;2022-12-29T06:29:05;94606.81;;;8.97;56.12
20037;BME280;10179;42.640;23.312;2022-12-29T06:31:32;94602.38;;;8.98;56.13
20037;BME280;10179;42.640;23.312;2022-12-29T06:33:57;94609.88;;;9.01;56.17
20037;BME280;10179;42.640;23.312;2022-12-29T06:36:22;94613.94;;;9.03;56.18
20037;BME280;10179;42.640;23.312;2022-12-29T06:38:48;94609.09;;;9.07;56.23
20037;BME280;10179;42.640;23.312;2022-12-29T06:41:13;94612.97;;;9.11;56.23
20037;BME280;10179;42.640;23.312;2022-12-29T06:43:39;94619.44;;;9.15;56.14
20037;BME280;10179;42.640;23.312;2022-12-29T06:46:05;94614.81;;;9.17;56.01
20037;BME280;10179;42.640;23.312;2022-12-29T06:48:30;94619.06;;;9.18;56.22
20037;BME280;10179;42.640;23.312;2022-12-29T06:50:56;94594.03;;;9.09;56.04
20037;BME280;10179;42.640;23.312;2022-12-29T06:53:21;94613.06;;;9.24;56.12
20037;BME280;10179;42.640;23.312;2022-12-29T06:55:47;94612.69;;;9.27;56.17
20037;BME280;10179;42.640;23.312;2022-12-29T06:58:12;94620.16;;;9.30;56.01
20037;BME280;10179;42.640;23.312;2022-12-29T07:00:37;94609.03;;;9.28;56.10
20037;BME280;10179;42.640;23.312;2022-12-29T07:03:03;94619.63;;;9.42;55.96
20037;BME280;10179;42.640;23.312;2022-12-29T07:05:28;94623.25;;;9.41;55.54
20037;BME280;10179;42.640;23.312;2022-12-29T07:07:56;94618.00;;;9.41;55.86
20037;BME280;10179;42.640;23.312;2022-12-29T07:10:22;94620.84;;;9.46;55.94
20037;BME280;10179;42.640;23.312;2022-12-29T07:12:48;94526.38;;;8.91;55.88
20037;BME280;10179;42.640;23.312;2022-12-29T07:15:13;94615.50;;;9.67;56.07
20037;BME280;10179;42.640;23.312;2022-12-29T07:17:39;94624.66;;;9.85;55.95
20037;BME280;10179;42.640;23.312;2022-12-29T07:20:05;94585.09;;;9.79;55.92
20037;BME280;10179;42.640;23.312;2022-12-29T07:22:31;94619.09;;;10.14;55.67
20037;BME280;10179;42.640;23.312;2022-12-29T07:24:56;94615.97;;;10.32;55.33
20037;BME280;10179;42.640;23.312;2022-12-29T07:27:22;94623.28;;;10.50;55.11
20037;BME280;10179;42.640;23.312;2022-12-29T07:29:47;94608.09;;;10.52;54.70
20037;BME280;10179;42.640;23.312;2022-12-29T07:32:12;94599.22;;;10.66;54.24
20037;BME280;10179;42.640;23.312;2022-12-29T07:34:38;94561.44;;;10.54;53.47
20037;BME280;10179;42.640;23.312;2022-12-29T07:37:04;94619.25;;;10.94;52.72
20037;BME280;10179;42.640;23.312;2022-12-29T07:39:30;94616.00;;;10.98;52.54
20037;BME280;10179;42.640;23.312;2022-12-29T07:41:55;94470.91;;;10.17;52.44
20037;BME280;10179;42.640;23.312;2022-12-29T07:44:21;94611.13;;;11.15;52.19
20037;BME280;10179;42.640;23.312;2022-12-29T07:46:46;94626.50;;;11.18;51.76
20037;BME280;10179;42.640;23.312;2022-12-29T07:49:12;94522.63;;;10.56;51.21
20037;BME280;10179;42.640;23.312;2022-12-29T07:51:37;94545.28;;;10.57;51.49
20037;BME280;10179;42.640;23.312;2022-12-29T07:54:03;94591.94;;;10.95;51.01
20037;BME280;10179;42.640;23.312;2022-12-29T07:56:28;94626.50;;;11.12;51.40
20037;BME280;10179;42.640;23.312;2022-12-29T07:58:54;94605.69;;;10.97;51.51
20037;BME280;10179;42.640;23.312;2022-12-29T08:01:19;94626.50;;;11.18;51.26
20037;BME280;10179;42.640;23.312;2022-12-29T08:03:45;94632.16;;;11.15;50.99
20037;BME280;10179;42.640;23.312;2022-12-29T08:06:11;94589.75;;;10.79;50.91
20037;BME280;10179;42.640;23.312;2022-12-29T08:08:36;94633.81;;;11.03;50.91
20037;BME280;10179;42.640;23.312;2022-12-29T08:11:03;94651.19;;;10.97;51.27
20037;BME280;10179;42.640;23.312;2022-12-29T08:13:28;94623.28;;;10.90;51.69
20037;BME280;10179;42.640;23.312;2022-12-29T08:15:54;94608.72;;;10.87;51.81
20037;BME280;10179;42.640;23.312;2022-12-29T08:18:19;94631.78;;;11.12;51.60
20037;BME280;10179;42.640;23.312;2022-12-29T08:20:44;94640.28;;;11.14;51.39
20037;BME280;10179;42.640;23.312;2022-12-29T08:23:10;94628.13;;;11.19;51.35
20037;BME280;10179;42.640;23.312;2022-12-29T08:25:35;94547.06;;;10.77;51.39
20037;BME280;10179;42.640;23.312;2022-12-29T08:28:01;94620.63;;;11.30;51.41
20037;BME280;10179;42.640;23.312;2022-12-29T08:30:26;94608.31;;;11.23;51.26
20037;BME280;10179;42.640;23.312;2022-12-29T08:32:51;94630.53;;;11.41;50.98
20037;BME280;10179;42.640;23.312;2022-12-29T08:35:17;94621.81;;;11.47;50.81
20037;BME280;10179;42.640;23.312;2022-12-29T08:37:42;94623.63;;;11.46;50.41
20037;BME280;10179;42.640;23.312;2022-12-29T08:40:08;94633.34;;;11.46;50.39
20037;BME280;10179;42.640;23.312;2022-12-29T08:42:34;94611.34;;;11.34;50.34
20037;BME280;10179;42.640;23.312;2022-12-29T08:45:00;94603.06;;;11.23;50.11
20037;BME280;10179;42.640;23.312;2022-12-29T08:47:26;94629.13;;;11.38;50.18
20037;BME280;10179;42.640;23.312;2022-12-29T08:49:51;94602.66;;;11.20;50.10
20037;BME280;10179;42.640;23.312;2022-12-29T08:52:17;94540.63;;;10.72;50.18
20037;BME280;10179;42.640;23.312;2022-12-29T08:54:43;94639.25;;;11.35;50.25
20037;BME280;10179;42.640;23.312;2022-12-29T08:57:08;94279.97;;;9.19;50.12
20037;BME280;10179;42.640;23.312;2022-12-29T08:59:34;94621.63;;;11.35;49.86
20037;BME280;10179;42.640;23.312;2022-12-29T09:01:59;94576.38;;;10.93;49.82
20037;BME280;10179;42.640;23.312;2022-12-29T09:04:26;94622.84;;;11.19;50.14
20037;BME280;10179;42.640;23.312;2022-12-29T09:06:52;94612.78;;;11.16;50.27
20037;BME280;10179;42.640;23.312;2022-12-29T09:09:18;94612.38;;;11.13;50.27
20037;BME280;10179;42.640;23.312;2022-12-29T09:11:43;94609.53;;;11.08;50.50
20037;BME280;10179;42.640;23.312;2022-12-29T09:14:09;94618.63;;;11.05;50.62
20037;BME280;10179;42.640;23.312;2022-12-29T09:16:35;94615.19;;;10.98;50.54
20037;BME280;10179;42.640;23.312;2022-12-29T09:19:00;94589.34;;;10.82;50.86
20037;BME280;10179;42.640;23.312;2022-12-29T09:21:26;94600.22;;;10.98;51.05
20037;BME280;10179;42.640;23.312;2022-12-29T09:23:51;94147.22;;;8.12;50.78
20037;BME280;10179;42.640;23.312;2022-12-29T09:26:16;94611.75;;;10.97;50.76
20037;BME280;10179;42.640;23.312;2022-12-29T09:28:42;94588.53;;;10.81;50.84
20037;BME280;10179;42.640;23.312;2022-12-29T09:31:09;94611.56;;;10.99;51.07
20037;BME280;10179;42.640;23.312;2022-12-29T09:33:34;94607.53;;;11.03;50.85
20037;BME280;10179;42.640;23.312;2022-12-29T09:36:00;94537.59;;;10.62;50.72
20037;BME280;10179;42.640;23.312;2022-12-29T09:38:26;94590.94;;;10.96;51.06
20037;BME280;10179;42.640;23.312;2022-12-29T09:40:55;94580.03;;;10.99;51.07
20037;BME280;10179;42.640;23.312;2022-12-29T09:48:34;94465.88;;;10.48;50.55
20037;BME280;10179;42.640;23.312;2022-12-29T09:51:07;94518.97;;;10.84;50.70
20037;BME280;10179;42.640;23.312;2022-12-29T09:53:41;94577.16;;;11.34;50.63
20037;BME280;10179;42.640;23.312;2022-12-29T09:56:18;94273.94;;;9.39;50.55
20037;BME280;10179;42.640;23.312;2022-12-29T09:58:53;94588.84;;;11.44;50.46
20037;BME280;10179;42.640;23.312;2022-12-29T10:01:43;94576.25;;;11.53;50.60
20037;BME280;10179;42.640;23.312;2022-12-29T10:04:10;94572.63;;;11.47;50.20
20037;BME280;10179;42.640;23.312;2022-12-29T10:12:26;94563.31;;;11.58;50.09
20037;BME280;10179;42.640;23.312;2022-12-29T10:25:38;94527.06;;;11.60;49.71
20037;BME280;10179;42.640;23.312;2022-12-29T10:28:19;94560.19;;;11.88;49.78
20037;BME280;10179;42.640;23.312;2022-12-29T10:30:48;94548.84;;;11.87;49.57
20037;BME280;10179;42.640;23.312;2022-12-29T10:33:19;94458.53;;;11.42;49.33
20037;BME280;10179;42.640;23.312;2022-12-29T10:35:46;94552.38;;;12.06;49.04
20037;BME280;10179;42.640;23.312;2022-12-29T10:41:09;94545.59;;;12.24;49.28
20037;BME280;10179;42.640;23.312;2022-12-29T10:43:46;94538.88;;;12.28;49.19
20037;BME280;10179;42.640;23.312;2022-12-29T10:46:15;94545.97;;;12.27;48.73
20037;BME280;10179;42.640;23.312;2022-12-29T10:48:43;94217.75;;;9.99;48.43
20037;BME280;10179;42.640;23.312;2022-12-29T10:51:18;94547.97;;;12.32;48.56
20037;BME280;10179;42.640;23.312;2022-12-29T10:53:48;94499.69;;;12.13;48.38
20037;BME280;10179;42.640;23.312;2022-12-29T10:56:33;94527.69;;;12.39;48.46
20037;BME280;10179;42.640;23.312;2022-12-29T10:59:03;94486.13;;;12.09;48.42
20037;BME280;10179;42.640;23.312;2022-12-29T11:01:37;94427.53;;;11.89;48.43
20037;BME280;10179;42.640;23.312;2022-12-29T11:04:31;94492.41;;;12.40;48.44
20037;BME280;10179;42.640;23.312;2022-12-29T11:06:58;94505.47;;;12.53;48.16
20037;BME280;10179;42.640;23.312;2022-12-29T11:09:28;94499.75;;;12.56;47.88
20037;BME280;10179;42.640;23.312;2022-12-29T11:11:55;94496.72;;;12.53;47.73
20037;BME280;10179;42.640;23.312;2022-12-29T11:14:31;94507.03;;;12.61;47.87
20037;BME280;10179;42.640;23.312;2022-12-29T11:17:00;94480.56;;;12.49;47.88
20037;BME280;10179;42.640;23.312;2022-12-29T11:19:28;94487.47;;;12.50;47.55
20037;BME280;10179;42.640;23.312;2022-12-29T11:22:12;94495.63;;;12.67;47.45
20037;BME280;10179;42.640;23.312;2022-12-29T11:24:44;94486.56;;;12.56;47.62
20037;BME280;10179;42.640;23.312;2022-12-29T11:27:26;94430.94;;;12.21;47.54
20037;BME280;10179;42.640;23.312;2022-12-29T11:29:53;94432.94;;;12.26;47.34
20037;BME280;10179;42.640;23.312;2022-12-29T11:32:27;94503.44;;;12.74;47.37
20037;BME280;10179;42.640;23.312;2022-12-29T11:34:55;94407.03;;;12.23;47.26
20037;BME280;10179;42.640;23.312;2022-12-29T11:37:32;94487.16;;;12.83;47.42
20037;BME280;10179;42.640;23.312;2022-12-29T11:40:06;94494.41;;;12.88;47.26
20037;BME280;10179;42.640;23.312;2022-12-29T11:42:41;94484.44;;;12.90;46.98
20037;BME280;10179;42.640;23.312;2022-12-29T11:45:18;94484.53;;;13.02;46.99
20037;BME280;10179;42.640;23.312;2022-12-29T11:47:47;94498.91;;;12.81;46.98
20037;BME280;10179;42.640;23.312;2022-12-29T11:50:31;94459.78;;;13.03;46.88
20037;BME280;10179;42.640;23.312;2022-12-29T11:53:01;94384.66;;;12.32;46.92
20037;BME280;10179;42.640;23.312;2022-12-29T11:55:28;94479.97;;;13.09;46.99
20037;BME280;10179;42.640;23.312;2022-12-29T11:57:55;94412.66;;;12.70;46.75
20037;BME280;10179;42.640;23.312;2022-12-29T12:00:25;94467.03;;;13.07;46.70
20037;BME280;10179;42.640;23.312;2022-12-29T12:03:07;94481.47;;;13.23;46.90
20037;BME280;10179;42.640;23.312;2022-12-29T12:05:51;94484.03;;;13.30;46.74
20037;BME280;10179;42.640;23.312;2022-12-29T12:08:29;94448.25;;;13.16;46.75
20037;BME280;10179;42.640;23.312;2022-12-29T12:16:22;94443.34;;;13.19;46.58
20037;BME280;10179;42.640;23.312;2022-12-29T12:19:03;94461.19;;;13.42;46.45
20037;BME280;10179;42.640;23.312;2022-12-29T12:21:40;94466.91;;;13.39;46.63
20037;BME280;10179;42.640;23.312;2022-12-29T12:24:22;94465.88;;;13.40;46.69
20037;BME280;10179;42.640;23.312;2022-12-29T12:27:12;94455.22;;;13.47;46.60
20037;BME280;10179;42.640;23.312;2022-12-29T12:30:05;94459.63;;;13.53;46.48
20037;BME280;10179;42.640;23.312;2022-12-29T12:35:15;94334.84;;;12.67;46.58
20037;BME280;10179;42.640;23.312;2022-12-29T12:38:06;94451.75;;;13.65;46.31
20037;BME280;10179;42.640;23.312;2022-12-29T12:46:04;94447.44;;;13.70;46.00
20037;BME280;10179;42.640;23.312;2022-12-29T12:48:47;94439.06;;;13.73;46.07
20037;BME280;10179;42.640;23.312;2022-12-29T13:00:13;94449.13;;;13.95;45.58
20037;BME280;10179;42.640;23.312;2022-12-29T13:05:50;94429.91;;;13.88;45.53
20037;BME280;10179;42.640;23.312;2022-12-29T13:11:17;94450.19;;;14.05;45.43
20037;BME280;10179;42.640;23.312;2022-12-29T13:14:16;94446.41;;;14.13;45.33
20037;BME280;10179;42.640;23.312;2022-12-29T13:16:55;94434.19;;;14.00;45.41
20037;BME280;10179;42.640;23.312;2022-12-29T13:22:21;94458.22;;;14.11;45.40
20037;BME280;10179;42.640;23.312;2022-12-29T13:30:08;94462.50;;;14.12;45.49
20037;BME280;10179;42.640;23.312;2022-12-29T13:38:17;94440.94;;;13.96;45.06
20037;BME280;10179;42.640;23.312;2022-12-29T13:40:53;94432.31;;;13.89;45.35
20037;BME280;10179;42.640;23.312;2022-12-29T13:43:21;94468.84;;;13.92;45.46
20037;BME280;10179;42.640;23.312;2022-12-29T13:45:54;94467.25;;;13.91;45.76
20037;BME280;10179;42.640;23.312;2022-12-29T13:48:38;94439.88;;;13.74;45.62
20037;BME280;10179;42.640;23.312;2022-12-29T13:51:08;94404.63;;;13.38;45.72
20037;BME280;10179;42.640;23.312;2022-12-29T14:01:07;94456.31;;;13.88;45.70
20037;BME280;10179;42.640;23.312;2022-12-29T14:06:12;94455.88;;;13.60;46.31
20037;BME280;10179;42.640;23.312;2022-12-29T14:08:39;94461.16;;;13.60;46.49
20037;BME280;10179;42.640;23.312;2022-12-29T14:11:10;94459.66;;;13.65;46.45
20037;BME280;10179;42.640;23.312;2022-12-29T14:13:40;94457.03;;;13.65;46.55
20037;BME280;10179;42.640;23.312;2022-12-29T14:18:54;94296.84;;;12.56;46.26
20037;BME280;10179;42.640;23.312;2022-12-29T14:21:25;94370.94;;;13.03;46.36
20037;BME280;10179;42.640;23.312;2022-12-29T14:25:00;94469.94;;;13.73;46.34
20037;BME280;10179;42.640;23.312;2022-12-29T14:34:51;94482.72;;;13.57;46.33
20037;BME280;10179;42.640;23.312;2022-12-29T14:37:33;94491.22;;;13.59;46.32
20037;BME280;10179;42.640;23.312;2022-12-29T14:42:42;94492.25;;;13.40;46.47
20037;BME280;10179;42.640;23.312;2022-12-29T14:45:27;94442.06;;;13.10;46.60
20037;BME280;10179;42.640;23.312;2022-12-29T14:47:55;94483.84;;;13.31;46.81
20037;BME280;10179;42.640;23.312;2022-12-29T14:52:54;94486.69;;;13.30;46.76
20037;BME280;10179;42.640;23.312;2022-12-29T14:55:53;94490.94;;;13.31;46.74
20037;BME280;10179;42.640;23.312;2022-12-29T14:58:31;94490.03;;;13.19;46.84
20037;BME280;10179;42.640;23.312;2022-12-29T15:00:58;94451.34;;;12.76;46.91
20037;BME280;10179;42.640;23.312;2022-12-29T15:03:47;94498.69;;;13.07;47.10
20037;BME280;10179;42.640;23.312;2022-12-29T15:06:15;94440.84;;;12.69;47.10
20037;BME280;10179;42.640;23.312;2022-12-29T15:09:06;94401.66;;;12.36;47.09
20037;BME280;10179;42.640;23.312;2022-12-29T15:14:01;94493.22;;;12.84;47.04
20037;BME280;10179;42.640;23.312;2022-12-29T15:16:33;94492.03;;;12.80;47.03